Time;durP1;ratioP1;P1;durP2;ratioP2;P2;SDS_P1;SDS_P2;PMS_P1;PMS_P2;Temp;Humidity;BMP_temperature;BMP_pressure;BME280_temperature;BME280_humidity;BME280_pressure;Samples;Min_cycle;Max_cycle;Signal;HPM_P1;HPM_P2
2023/10/23 00:03:08;;;;;;;10.20;8.40;;;;;;;9.76;100.00;99178.98;430568;1273;139239;-66
2023/10/23 00:13:14;;;;;;;11.80;10.50;;;;;;;9.74;100.00;99185.61;430695;1271;140222;-65
2023/10/23 00:23:20;;;;;;;11.50;10.20;;;;;;;9.73;100.00;99177.64;430764;1272;139424;-64
2023/10/23 00:33:26;;;;;;;12.30;9.50;;;;;;;9.71;100.00;99188.58;430825;1270;139374;-64
2023/10/23 00:43:34;;;;;;;11.30;10.30;;;;;;;9.68;100.00;99186.32;431416;1272;139765;-64
2023/10/23 00:53:42;;;;;;;11.20;10.20;;;;;;;9.68;100.00;99192.25;431300;1271;139357;-63
2023/10/23 01:03:48;;;;;;;12.20;9.60;;;;;;;9.70;100.00;99196.23;431561;1271;139857;-64
2023/10/23 01:13:54;;;;;;;10.40;8.70;;;;;;;9.72;100.00;99204.27;430525;1273;141085;-64
2023/10/23 01:24:01;;;;;;;12.70;9.70;;;;;;;9.72;100.00;99207.09;430675;1270;139457;-64
2023/10/23 01:34:07;;;;;;;8.60;7.90;;;;;;;9.72;100.00;99213.90;430809;1270;140083;-65
2023/10/23 01:44:13;;;;;;;7.90;7.10;;;;;;;9.73;100.00;99219.45;431050;1273;139550;-64
2023/10/23 01:54:19;;;;;;;10.00;9.00;;;;;;;9.75;100.00;99215.96;431395;1273;139287;-65
2023/10/23 02:04:26;;;;;;;9.80;7.10;;;;;;;9.72;100.00;99219.13;431772;1272;140313;-65
2023/10/23 02:14:32;;;;;;;9.90;7.60;;;;;;;9.70;100.00;99218.39;431562;1273;140235;-64
2023/10/23 02:24:38;;;;;;;8.60;7.30;;;;;;;9.68;100.00;99216.96;431594;1273;139832;-64
2023/10/23 02:34:47;;;;;;;7.40;6.70;;;;;;;9.66;100.00;99225.64;431357;1273;139403;-65
2023/10/23 02:44:54;;;;;;;8.70;7.70;;;;;;;9.63;100.00;99230.72;430749;1273;142123;-66
2023/10/23 02:55:00;;;;;;;9.50;7.20;;;;;;;9.61;100.00;99223.17;430789;1271;140686;-64
2023/10/23 03:05:07;;;;;;;7.70;6.90;;;;;;;9.53;100.00;99223.13;431143;1272;139966;-64
2023/10/23 03:15:14;;;;;;;9.40;8.00;;;;;;;9.47;100.00;99221.59;432287;1272;139104;-64
2023/10/23 03:25:20;;;;;;;10.20;8.10;;;;;;;9.43;100.00;99226.09;430711;1273;139436;-65
2023/10/23 03:35:26;;;;;;;9.70;7.30;;;;;;;9.29;100.00;99228.52;430921;1272;139428;-64
2023/10/23 03:45:37;;;;;;;10.80;7.70;;;;;;;8.98;100.00;99233.45;430898;1272;139241;-64
2023/10/23 03:55:43;;;;;;;7.80;7.00;;;;;;;8.62;100.00;99241.09;431026;1273;139396;-64
2023/10/23 04:05:49;;;;;;;10.70;8.90;;;;;;;8.30;100.00;99253.42;430761;1273;138860;-64
2023/10/23 04:15:57;;;;;;;9.70;8.50;;;;;;;8.13;100.00;99256.52;430743;1273;140097;-65
2023/10/23 04:26:03;;;;;;;11.10;9.50;;;;;;;8.00;100.00;99275.23;431190;1273;140308;-65
2023/10/23 04:36:09;;;;;;;11.20;10.10;;;;;;;7.95;100.00;99286.88;430902;1272;139315;-64
2023/10/23 04:46:15;;;;;;;10.40;8.40;;;;;;;7.88;100.00;99288.83;431069;1270;139887;-64
2023/10/23 04:56:21;;;;;;;11.20;10.10;;;;;;;7.66;100.00;99285.17;430570;1273;139611;-65
2023/10/23 05:06:27;;;;;;;13.40;10.00;;;;;;;7.46;100.00;99284.58;430700;1271;139377;-64
2023/10/23 05:16:33;;;;;;;16.80;11.50;;;;;;;7.30;100.00;99285.79;430813;1272;139476;-64
2023/10/23 05:26:39;;;;;;;19.60;12.90;;;;;;;7.27;100.00;99312.05;430490;1270;139330;-65
2023/10/23 05:36:45;;;;;;;12.30;11.00;;;;;;;7.37;100.00;99331.02;430547;1271;139674;-65
2023/10/23 05:46:50;;;;;;;15.00;11.10;;;;;;;7.51;100.00;99358.66;430656;1270;139548;-64
2023/10/23 05:56:56;;;;;;;12.90;11.60;;;;;;;7.75;100.00;99361.52;430541;1270;139967;-65
2023/10/23 06:07:02;;;;;;;12.10;10.90;;;;;;;8.06;100.00;99376.20;430545;1273;140439;-63
2023/10/23 06:17:09;;;;;;;12.90;11.20;;;;;;;8.80;100.00;99387.45;430552;1270;139328;-64
2023/10/23 06:27:14;;;;;;;9.60;7.50;;;;;;;10.90;100.00;99395.78;431478;1270;139775;-64
2023/10/23 06:37:20;;;;;;;5.50;5.00;;;;;;;13.62;100.00;99399.16;430592;1272;140594;-65
2023/10/23 06:47:26;;;;;;;8.90;8.10;;;;;;;16.69;100.00;99398.84;430834;1272;139177;-64
2023/10/23 06:57:32;;;;;;;6.50;6.00;;;;;;;18.11;100.00;99396.33;430405;1273;139175;-64
2023/10/23 07:07:38;;;;;;;6.90;5.20;;;;;;;17.58;100.00;99398.74;430659;1273;139576;-66
2023/10/23 07:17:44;;;;;;;12.20;6.70;;;;;;;16.74;100.00;99400.09;430705;1272;139277;-65
2023/10/23 07:27:50;;;;;;;7.30;6.20;;;;;;;16.43;100.00;99406.64;430372;1272;139731;-66
2023/10/23 07:37:55;;;;;;;5.10;4.60;;;;;;;16.23;100.00;99418.83;430561;1271;141093;-65
2023/10/23 07:48:01;;;;;;;5.80;4.80;;;;;;;15.78;100.00;99434.11;430923;1270;140321;-65
2023/10/23 07:58:08;;;;;;;6.50;5.00;;;;;;;15.05;100.00;99438.71;431041;1269;140690;-66
2023/10/23 08:08:13;;;;;;;6.40;5.70;;;;;;;14.46;100.00;99444.51;431296;1270;140865;-64
2023/10/23 08:18:20;;;;;;;7.80;6.00;;;;;;;14.13;100.00;99456.17;430751;1273;139239;-64
2023/10/23 08:28:43;;;;;;;7.10;5.30;;;;;;;14.11;100.00;99451.92;431552;1270;140066;-65
2023/10/23 08:38:52;;;;;;;5.10;4.50;;;;;;;14.15;100.00;99456.67;430604;1272;139664;-64
2023/10/23 08:48:58;;;;;;;9.40;5.00;;;;;;;13.94;100.00;99465.25;430461;1270;139355;-64
2023/10/23 08:59:05;;;;;;;5.20;4.70;;;;;;;13.71;100.00;99462.48;431581;1270;139171;-64
2023/10/23 09:09:11;;;;;;;4.80;3.40;;;;;;;13.51;100.00;99470.50;430829;1270;140829;-65
2023/10/23 09:19:26;;;;;;;6.80;3.40;;;;;;;13.19;100.00;99478.94;430604;1270;139392;-64
2023/10/23 09:29:32;;;;;;;4.50;3.30;;;;;;;13.35;100.00;99484.23;431601;1272;139158;-65
2023/10/23 09:39:40;;;;;;;5.30;3.80;;;;;;;13.44;100.00;99476.67;430545;1270;139312;-65
2023/10/23 09:49:46;;;;;;;;;;;;;;;13.74;100.00;99468.54;430560;1272;140663;-64
2023/10/23 10:00:00;;;;;;;4.80;3.40;;;;;;;14.94;100.00;99460.82;430860;1271;126311;-66
2023/10/23 10:10:08;;;;;;;5.10;2.60;;;;;;;16.10;100.00;99455.86;430779;1272;139920;-66
2023/10/23 10:20:13;;;;;;;;;;;;;;;16.71;100.00;99453.23;430906;1271;139460;-67
2023/10/23 10:30:40;;;;;;;3.60;2.00;;;;;;;16.65;100.00;99447.04;431261;1271;125704;-66
2023/10/23 10:41:00;;;;;;;6.20;3.70;;;;;;;16.33;100.00;99450.27;431883;1268;139833;-65
2023/10/23 10:51:07;;;;;;;3.70;2.10;;;;;;;15.94;100.00;99444.05;430725;1270;139497;-65
2023/10/23 11:01:13;;;;;;;2.70;1.90;;;;;;;15.62;100.00;99443.64;431584;1270;140677;-65
2023/10/23 11:11:19;;;;;;;8.90;2.90;;;;;;;15.85;100.00;99437.88;431457;1272;139615;-66
2023/10/23 11:21:25;;;;;;;3.30;2.40;;;;;;;16.09;100.00;99434.02;431236;1270;139347;-65
2023/10/23 11:31:32;;;;;;;3.70;2.40;;;;;;;16.49;100.00;99428.75;431310;1270;140729;-65
2023/10/23 11:41:38;;;;;;;7.60;2.90;;;;;;;16.95;100.00;99425.25;430557;1272;139663;-66
2023/10/23 11:51:44;;;;;;;5.30;2.00;;;;;;;16.98;100.00;99430.38;430322;1271;140862;-65
2023/10/23 12:01:52;;;;;;;3.60;1.80;;;;;;;16.87;99.86;99431.09;432111;1270;139249;-65
2023/10/23 12:11:58;;;;;;;3.90;2.00;;;;;;;16.41;99.08;99429.95;430584;1268;139127;-67
2023/10/23 12:22:05;;;;;;;4.70;2.00;;;;;;;16.01;98.90;99437.20;430520;1273;139926;-66
2023/10/23 12:32:13;;;;;;;4.40;2.50;;;;;;;15.43;99.37;99431.30;431066;1271;138993;-65
2023/10/23 12:42:39;;;;;;;5.70;2.40;;;;;;;15.02;99.79;99432.46;430663;1272;139525;-65
2023/10/23 12:52:46;;;;;;;5.80;2.10;;;;;;;14.66;100.00;99435.81;431123;1270;139642;-66
2023/10/23 13:02:52;;;;;;;;;;;;;;;14.42;100.00;99436.35;430562;1271;140515;-65
2023/10/23 13:12:58;;;;;;;6.00;4.40;;;;;;;14.23;100.00;99431.41;430572;1270;128369;-65
2023/10/23 13:23:04;;;;;;;2.90;2.10;;;;;;;14.00;100.00;99431.73;430602;1271;139414;-64
2023/10/23 13:33:11;;;;;;;6.10;2.70;;;;;;;13.78;100.00;99432.36;430400;1270;140590;-65
2023/10/23 13:43:17;;;;;;;5.90;3.60;;;;;;;13.56;100.00;99430.09;430752;1270;141280;-66
2023/10/23 13:53:24;;;;;;;3.20;2.70;;;;;;;13.58;100.00;99422.14;430595;1272;140132;-65
2023/10/23 14:03:30;;;;;;;11.10;3.40;;;;;;;13.68;100.00;99418.02;431714;1273;142785;-65
2023/10/23 14:13:36;;;;;;;4.80;3.50;;;;;;;13.71;100.00;99411.27;430696;1270;140423;-65
2023/10/23 14:23:41;;;;;;;5.70;3.60;;;;;;;13.73;100.00;99399.34;431005;1272;139289;-65
2023/10/23 14:33:47;;;;;;;6.80;4.30;;;;;;;13.66;100.00;99383.21;431142;1270;141307;-65
2023/10/23 14:43:54;;;;;;;9.90;5.80;;;;;;;13.47;100.00;99382.39;431200;1271;139414;-65
2023/10/23 14:53:59;;;;;;;7.10;4.40;;;;;;;13.22;100.00;99379.60;430803;1271;140294;-66
2023/10/23 15:04:06;;;;;;;6.60;4.70;;;;;;;12.94;100.00;99388.80;430600;1272;140117;-65
2023/10/23 15:14:12;;;;;;;8.50;6.70;;;;;;;12.70;100.00;99401.29;431630;1270;141106;-65
2023/10/23 15:24:18;;;;;;;8.40;6.50;;;;;;;12.50;100.00;99404.69;430797;1268;139297;-66
2023/10/23 15:34:25;;;;;;;7.00;6.00;;;;;;;12.31;100.00;99406.88;430696;1269;139321;-65
2023/10/23 15:44:34;;;;;;;8.50;6.80;;;;;;;12.08;100.00;99414.45;430839;1271;139336;-65
2023/10/23 15:54:40;;;;;;;8.70;7.40;;;;;;;11.92;100.00;99420.86;431261;1270;140384;-66
2023/10/23 16:04:47;;;;;;;11.10;10.10;;;;;;;11.75;100.00;99424.48;430844;1271;139369;-65
2023/10/23 16:14:53;;;;;;;18.10;15.90;;;;;;;11.64;100.00;99424.40;430758;1272;141342;-65
2023/10/23 16:25:02;;;;;;;25.10;19.60;;;;;;;11.56;100.00;99422.38;430746;1272;140001;-65
2023/10/23 16:35:09;;;;;;;28.20;22.40;;;;;;;11.47;100.00;99423.80;430814;1272;139805;-66
2023/10/23 16:45:15;;;;;;;30.20;23.80;;;;;;;11.39;100.00;99421.62;431317;1273;140521;-64
2023/10/23 16:55:21;;;;;;;34.10;27.70;;;;;;;11.31;100.00;99418.09;430947;1270;139992;-66
2023/10/23 17:05:27;;;;;;;37.60;32.10;;;;;;;11.24;100.00;99410.03;430821;1271;139503;-68
2023/10/23 17:15:33;;;;;;;38.00;32.80;;;;;;;11.17;100.00;99405.58;430907;1272;140394;-66
2023/10/23 17:25:45;;;;;;;31.50;27.50;;;;;;;11.11;100.00;99403.02;430925;1272;139976;-66
2023/10/23 17:35:53;;;;;;;31.30;27.90;;;;;;;11.04;100.00;99402.98;432584;1270;139420;-65
2023/10/23 17:46:03;;;;;;;36.30;32.40;;;;;;;10.98;100.00;99395.00;431758;1273;139495;-66
2023/10/23 17:56:10;;;;;;;33.90;30.00;;;;;;;10.92;100.00;99394.19;431901;1272;139980;-65
2023/10/23 18:06:16;;;;;;;40.90;35.10;;;;;;;10.84;100.00;99385.61;432144;1270;139510;-65
2023/10/23 18:16:22;;;;;;;39.20;33.40;;;;;;;10.77;100.00;99389.91;431151;1273;139636;-67
2023/10/23 18:26:28;;;;;;;47.50;41.70;;;;;;;10.75;100.00;99394.97;430616;1272;139848;-66
2023/10/23 18:36:35;;;;;;;50.40;44.90;;;;;;;10.68;100.00;99390.39;430502;1272;139659;-66
2023/10/23 18:46:40;;;;;;;48.40;41.10;;;;;;;10.54;100.00;99383.75;430986;1272;140667;-65
2023/10/23 18:56:47;;;;;;;44.80;39.50;;;;;;;10.34;100.00;99379.98;430299;1272;141105;-65
2023/10/23 19:06:52;;;;;;;48.00;39.20;;;;;;;10.04;100.00;99374.92;430438;1271;140969;-65
2023/10/23 19:17:03;;;;;;;45.60;39.70;;;;;;;9.76;100.00;99375.48;430793;1273;139693;-66
2023/10/23 19:27:10;;;;;;;43.90;37.80;;;;;;;9.49;100.00;99377.34;430656;1273;140259;-66
2023/10/23 19:37:18;;;;;;;40.00;35.80;;;;;;;9.25;100.00;99375.48;430951;1272;139512;-65
2023/10/23 19:47:25;;;;;;;37.70;33.40;;;;;;;8.95;100.00;99377.48;430637;1272;140926;-66
2023/10/23 19:57:33;;;;;;;35.60;32.00;;;;;;;8.59;100.00;99376.13;431479;1272;139501;-65
2023/10/23 20:07:39;;;;;;;39.10;33.40;;;;;;;8.28;100.00;99379.66;431125;1273;139796;-65
2023/10/23 20:17:45;;;;;;;34.90;31.10;;;;;;;8.04;100.00;99372.28;430931;1273;139984;-65
2023/10/23 20:27:51;;;;;;;36.20;32.30;;;;;;;7.80;100.00;99370.49;430627;1270;140445;-65
2023/10/23 20:37:57;;;;;;;36.90;31.20;;;;;;;7.55;100.00;99376.24;430551;1273;139773;-65
2023/10/23 20:48:03;;;;;;;32.00;28.70;;;;;;;7.33;100.00;99372.20;430778;1272;139769;-64
2023/10/23 20:58:09;;;;;;;35.30;29.30;;;;;;;7.13;100.00;99374.30;430971;1273;139336;-64
2023/10/23 21:08:15;;;;;;;32.10;28.10;;;;;;;6.86;100.00;99369.91;430727;1272;139782;-65
2023/10/23 21:18:21;;;;;;;31.00;27.60;;;;;;;6.69;100.00;99372.21;430998;1273;139803;-65
2023/10/23 21:28:27;;;;;;;31.80;28.10;;;;;;;6.54;100.00;99368.45;431335;1272;139723;-66
2023/10/23 21:38:33;;;;;;;33.30;29.80;;;;;;;6.36;100.00;99361.17;430913;1271;139810;-65
2023/10/23 21:48:39;;;;;;;43.40;36.90;;;;;;;6.26;100.00;99353.50;430550;1272;140441;-65
2023/10/23 21:58:46;;;;;;;43.20;35.60;;;;;;;6.14;100.00;99345.37;431031;1271;139172;-65
2023/10/23 22:09:13;;;;;;;;;;;;;;;5.96;100.00;99340.84;430413;1272;139230;-64
2023/10/23 22:19:20;;;;;;;40.30;35.60;;;;;;;5.77;100.00;99338.63;430909;1272;125429;-64
2023/10/23 22:29:25;;;;;;;43.90;38.30;;;;;;;5.57;100.00;99341.84;430404;1270;140269;-65
2023/10/23 22:39:31;;;;;;;39.80;33.60;;;;;;;5.41;100.00;99335.08;430253;1272;139537;-64
2023/10/23 22:49:38;;;;;;;42.90;35.50;;;;;;;5.30;100.00;99327.46;430450;1272;139338;-63
2023/10/23 22:59:45;;;;;;;46.50;36.50;;;;;;;5.31;100.00;99318.73;430783;1273;141099;-63
2023/10/23 23:09:53;;;;;;;40.60;36.30;;;;;;;5.42;100.00;99318.71;430426;1272;140441;-63
2023/10/23 23:20:02;;;;;;;39.60;32.50;;;;;;;5.41;100.00;99302.65;430452;1272;140463;-63
2023/10/23 23:30:10;;;;;;;37.30;32.90;;;;;;;5.63;100.00;99298.50;431842;1270;139582;-63
2023/10/23 23:40:16;;;;;;;39.40;34.20;;;;;;;5.70;100.00;99289.98;430707;1272;139186;-63
2023/10/23 23:50:21;;;;;;;38.50;32.20;;;;;;;5.64;100.00;99284.73;430347;1270;139654;-63
